createdAt,value
2022-10-04T00:02:15.824Z,7.47
2022-10-04T00:04:48.282Z,8.40
2022-10-04T00:07:38.345Z,7.13
2022-10-04T00:10:19.954Z,9.65
2022-10-04T00:13:02.552Z,10.32
2022-10-04T00:15:34.830Z,3.83
2022-10-04T00:18:26.173Z,7.32
2022-10-04T00:20:55.713Z,6.38
2022-10-04T00:23:25.496Z,6.10
2022-10-04T00:25:54.605Z,5.63
2022-10-04T00:28:21.361Z,4.47
2022-10-04T00:31:16.280Z,4.20
2022-10-04T00:33:50.013Z,9.45
2022-10-04T00:36:25.793Z,7.60
2022-10-04T00:39:05.008Z,5.60
2022-10-04T00:42:07.223Z,7.32
2022-10-04T00:44:43.103Z,14.65
2022-10-04T00:47:31.874Z,9.70
2022-10-04T00:50:14.436Z,4.75
2022-10-04T00:52:47.637Z,8.52
2022-10-04T00:55:33.362Z,6.82
2022-10-04T00:58:04.036Z,8.82
2022-10-04T01:00:33.491Z,8.10
2022-10-04T01:03:30.565Z,6.22
2022-10-04T01:06:02.015Z,5.82
2022-10-04T01:08:28.713Z,8.48
2022-10-04T01:11:03.715Z,8.13
2022-10-04T01:13:45.575Z,8.45
2022-10-04T01:16:19.849Z,7.85
2022-10-04T01:18:47.756Z,9.80
2022-10-04T01:21:23.526Z,5.30
2022-10-04T01:23:59.115Z,6.35
2022-10-04T01:26:34.956Z,9.45
2022-10-04T01:29:26.251Z,8.02
2022-10-04T01:31:56.128Z,7.00
2022-10-04T01:37:00.472Z,6.47
2022-10-04T01:39:29.011Z,8.77
2022-10-04T01:41:58.466Z,7.28
2022-10-04T01:44:31.894Z,9.32
2022-10-04T01:47:03.450Z,8.18
2022-10-04T01:49:34.493Z,4.78
2022-10-04T01:52:08.755Z,6.30
2022-10-04T01:54:43.740Z,7.93
2022-10-04T01:57:16.724Z,11.95
2022-10-04T01:59:57.816Z,6.18
2022-10-04T02:02:32.549Z,9.60
2022-10-04T02:05:01.825Z,6.85
2022-10-04T02:07:32.232Z,5.70
2022-10-04T02:10:03.217Z,5.28
2022-10-04T02:12:31.773Z,7.90
2022-10-04T02:15:02.000Z,7.32
2022-10-04T02:17:32.253Z,6.88
2022-10-04T02:20:01.614Z,5.82
2022-10-04T02:22:29.076Z,7.25
2022-10-04T02:25:18.476Z,7.25
2022-10-04T02:27:45.632Z,9.35
2022-10-04T02:30:13.743Z,8.80
2022-10-04T02:32:58.176Z,8.25
2022-10-04T02:35:29.293Z,7.97
2022-10-04T02:38:06.932Z,5.93
2022-10-04T02:40:48.325Z,7.97
2022-10-04T02:43:26.553Z,6.03
2022-10-04T02:46:07.575Z,13.95
2022-10-04T02:48:54.592Z,8.10
2022-10-04T02:51:28.405Z,8.38
2022-10-04T02:54:16.887Z,6.03
2022-10-04T02:56:44.424Z,7.05
2022-10-04T02:59:16.821Z,6.10
2022-10-04T03:01:54.143Z,8.65
2022-10-04T03:04:25.726Z,6.80
2022-10-04T03:06:53.372Z,8.45
2022-10-04T03:09:27.404Z,8.95
2022-10-04T03:11:56.621Z,10.27
2022-10-04T03:14:26.845Z,9.10
2022-10-04T03:17:00.831Z,10.45
2022-10-04T03:19:30.167Z,9.57
2022-10-04T03:22:01.582Z,10.25
2022-10-04T03:24:32.662Z,8.25
2022-10-04T03:27:03.076Z,8.32
2022-10-04T03:29:32.479Z,6.95
2022-10-04T03:32:02.175Z,8.98
2022-10-04T03:34:37.354Z,7.18
2022-10-04T03:37:09.622Z,10.05
2022-10-04T03:40:03.983Z,7.13
2022-10-04T03:42:34.996Z,7.82
2022-10-04T03:45:15.802Z,6.57
2022-10-04T03:47:46.852Z,5.90
2022-10-04T03:50:19.908Z,8.55
2022-10-04T03:52:59.102Z,8.77
2022-10-04T03:55:40.432Z,8.25
2022-10-04T03:58:11.568Z,6.20
2022-10-04T04:00:44.320Z,8.45
2022-10-04T04:03:17.255Z,9.95
2022-10-04T04:05:53.585Z,7.95
2022-10-04T04:08:42.856Z,7.53
2022-10-04T04:11:19.167Z,8.88
2022-10-04T04:14:08.786Z,8.73
2022-10-04T04:16:37.280Z,5.90
2022-10-04T04:19:11.552Z,6.85
2022-10-04T04:21:38.567Z,9.07
2022-10-04T04:24:23.149Z,10.10
2022-10-04T04:27:03.364Z,8.25
2022-10-04T04:29:36.404Z,6.97
2022-10-04T04:32:13.382Z,6.25
2022-10-04T04:34:57.605Z,7.30
2022-10-04T04:37:25.043Z,7.22
2022-10-04T04:39:56.712Z,7.18
2022-10-04T04:42:35.025Z,6.55
2022-10-04T04:45:04.646Z,11.30
2022-10-04T04:47:43.788Z,11.15
2022-10-04T04:50:17.612Z,8.57
2022-10-04T04:52:59.538Z,10.35
2022-10-04T04:55:39.924Z,14.40
2022-10-04T05:00:58.443Z,8.45
2022-10-04T05:03:33.407Z,11.38
2022-10-04T05:06:03.020Z,9.65
2022-10-04T05:08:31.879Z,8.38
2022-10-04T05:10:58.712Z,10.90
2022-10-04T05:13:33.309Z,6.45
2022-10-04T05:16:01.505Z,7.72
2022-10-04T05:18:29.903Z,6.97
2022-10-04T05:21:03.064Z,10.27
2022-10-04T05:23:29.976Z,7.28
2022-10-04T05:26:00.349Z,10.15
2022-10-04T05:28:30.077Z,10.25
2022-10-04T05:31:06.153Z,8.15
2022-10-04T05:33:45.446Z,14.10
2022-10-04T05:36:12.474Z,8.82
2022-10-04T05:39:03.875Z,9.35
2022-10-04T05:41:46.111Z,9.18
2022-10-04T05:44:47.064Z,6.10
2022-10-04T05:47:14.644Z,7.85
2022-10-04T05:49:44.464Z,8.90
2022-10-04T05:52:16.805Z,10.43
2022-10-04T05:54:43.747Z,8.82
2022-10-04T05:57:40.420Z,6.68
2022-10-04T06:00:15.600Z,4.93
2022-10-04T06:02:48.038Z,7.70
2022-10-04T06:05:18.961Z,6.45
2022-10-04T06:08:13.457Z,6.20
2022-10-04T06:10:58.533Z,11.23
2022-10-04T06:13:51.496Z,7.82
2022-10-04T06:16:54.979Z,10.05
2022-10-04T06:19:27.500Z,6.70
2022-10-04T06:22:17.113Z,9.27
2022-10-04T06:24:50.767Z,5.55
2022-10-04T06:27:36.981Z,8.52
2022-10-04T06:30:14.274Z,6.57
2022-10-04T06:32:40.904Z,9.48
2022-10-04T06:35:10.732Z,5.63
2022-10-04T06:37:37.452Z,6.78
2022-10-04T06:40:20.911Z,10.18
2022-10-04T06:42:53.663Z,6.97
2022-10-04T06:45:35.135Z,9.88
2022-10-04T06:48:32.493Z,7.38
2022-10-04T06:51:20.580Z,11.45
2022-10-04T06:54:32.192Z,6.03
2022-10-04T06:57:16.916Z,8.55
2022-10-04T07:00:09.675Z,7.55
2022-10-04T07:03:01.842Z,9.23
2022-10-04T07:05:40.115Z,7.93
2022-10-04T07:08:41.972Z,7.10
2022-10-04T07:11:17.703Z,8.88
2022-10-04T07:13:58.414Z,8.77
2022-10-04T07:16:43.342Z,9.43
2022-10-04T07:19:32.354Z,6.55
2022-10-04T07:22:05.829Z,7.80
2022-10-04T07:24:47.907Z,8.50
2022-10-04T07:27:20.378Z,8.27
2022-10-04T07:29:54.654Z,6.50
2022-10-04T07:32:28.212Z,9.45
2022-10-04T07:37:46.552Z,6.75
2022-10-04T07:40:27.467Z,13.45
2022-10-04T07:43:00.733Z,10.18
2022-10-04T07:45:40.110Z,8.32
2022-10-04T07:48:26.139Z,10.30
2022-10-04T07:51:24.337Z,6.90
2022-10-04T07:54:02.584Z,10.48
2022-10-04T07:56:41.276Z,11.95
2022-10-04T07:59:36.655Z,8.85
2022-10-04T08:02:32.893Z,8.18
2022-10-04T08:05:18.549Z,11.35
2022-10-04T08:08:24.445Z,7.95
2022-10-04T08:11:01.692Z,7.60
2022-10-04T08:14:05.961Z,5.97
2022-10-04T08:17:15.415Z,6.88
2022-10-04T08:20:19.381Z,6.20
2022-10-04T08:23:01.475Z,6.40
2022-10-04T08:25:53.124Z,7.35
2022-10-04T08:29:12.378Z,6.78
2022-10-04T08:32:05.678Z,8.35
2022-10-04T08:34:53.803Z,13.52
2022-10-04T08:37:44.595Z,6.63
2022-10-04T08:40:44.242Z,6.40
2022-10-04T08:43:22.952Z,8.73
2022-10-04T08:46:14.151Z,6.88
2022-10-04T08:49:18.694Z,7.10
2022-10-04T08:52:24.274Z,7.53
2022-10-04T08:55:20.992Z,8.35
2022-10-04T08:58:06.237Z,7.35
2022-10-04T09:00:56.860Z,5.97
2022-10-04T09:03:57.313Z,9.35
2022-10-04T09:06:49.817Z,8.13
2022-10-04T09:09:42.638Z,8.30
2022-10-04T09:12:28.115Z,5.57
2022-10-04T09:15:13.543Z,5.93
2022-10-04T09:17:55.705Z,8.38
2022-10-04T09:20:38.421Z,4.97
2022-10-04T09:23:08.761Z,8.30
2022-10-04T09:25:41.981Z,9.15
2022-10-04T09:28:40.507Z,6.60
2022-10-04T09:31:30.059Z,6.80
2022-10-04T09:34:37.535Z,8.05
2022-10-04T09:37:42.902Z,8.93
2022-10-04T09:40:22.052Z,6.35
2022-10-04T09:42:58.252Z,10.60
2022-10-04T09:45:27.639Z,8.52
2022-10-04T09:48:07.930Z,6.60
2022-10-04T09:51:08.470Z,5.93
2022-10-04T09:53:46.542Z,6.85
2022-10-04T09:56:27.021Z,6.55
2022-10-04T09:59:12.594Z,7.18
2022-10-04T10:01:56.054Z,6.90
2022-10-04T10:04:44.169Z,6.75
2022-10-04T10:07:25.838Z,8.40
2022-10-04T10:10:23.297Z,9.45
2022-10-04T10:13:22.252Z,5.78
2022-10-04T10:16:12.044Z,6.73
2022-10-04T10:21:21.808Z,4.75
2022-10-04T10:23:48.590Z,4.63
2022-10-04T10:26:17.951Z,5.88
2022-10-04T10:29:09.324Z,3.78
2022-10-04T10:31:54.583Z,5.63
2022-10-04T10:34:39.652Z,4.22
2022-10-04T10:37:26.579Z,3.05
2022-10-04T10:40:00.503Z,6.43
2022-10-04T10:42:46.192Z,9.93
2022-10-04T10:45:28.049Z,6.85
2022-10-04T10:48:15.212Z,4.97
2022-10-04T10:51:03.699Z,4.05
2022-10-04T10:53:52.031Z,4.40
2022-10-04T10:56:30.194Z,4.57
2022-10-04T10:59:09.592Z,4.40
2022-10-04T11:02:05.885Z,4.53
2022-10-04T11:04:54.854Z,4.47
2022-10-04T11:07:55.374Z,5.10
2022-10-04T11:10:40.225Z,3.40
2022-10-04T11:13:38.337Z,4.93
2022-10-04T11:16:19.704Z,4.78
2022-10-04T11:19:19.922Z,4.55
2022-10-04T11:22:16.895Z,3.53
2022-10-04T11:25:14.136Z,2.50
2022-10-04T11:27:57.368Z,3.80
2022-10-04T11:30:39.074Z,4.63
2022-10-04T11:33:39.176Z,4.82
2022-10-04T11:36:18.614Z,7.78
2022-10-04T11:38:54.395Z,4.57
2022-10-04T11:41:23.972Z,4.57
2022-10-04T11:44:16.072Z,7.28
2022-10-04T11:47:10.160Z,2.75
2022-10-04T11:49:50.631Z,2.00
2022-10-04T11:52:49.882Z,7.75
2022-10-04T11:55:23.603Z,5.22
2022-10-04T11:57:53.476Z,4.47
2022-10-04T12:00:41.542Z,5.22
2022-10-04T12:03:44.528Z,6.70
2022-10-04T12:06:35.059Z,6.63
2022-10-04T12:09:10.747Z,3.72
2022-10-04T12:12:08.147Z,3.60
2022-10-04T12:14:34.895Z,4.50
2022-10-04T12:17:50.842Z,7.10
2022-10-04T12:20:29.362Z,3.38
2022-10-04T12:23:33.226Z,3.00
2022-10-04T12:26:32.226Z,2.92
2022-10-04T12:29:02.090Z,4.15
2022-10-04T12:33:58.791Z,7.60
2022-10-04T12:36:30.511Z,3.00
2022-10-04T12:39:13.837Z,6.82
2022-10-04T12:41:49.621Z,5.13
2022-10-04T12:44:41.388Z,5.10
2022-10-04T12:47:42.142Z,3.15
2022-10-04T12:50:26.305Z,3.00
2022-10-04T12:53:15.695Z,3.50
2022-10-04T12:56:33.714Z,5.38
2022-10-04T12:59:15.590Z,3.72
2022-10-04T13:02:13.020Z,3.67
2022-10-04T13:05:07.962Z,3.42
2022-10-04T13:08:10.852Z,3.83
2022-10-04T13:11:07.232Z,4.85
2022-10-04T13:14:02.148Z,1.95
2022-10-04T13:17:30.925Z,2.58
2022-10-04T13:20:02.695Z,3.65
2022-10-04T13:23:03.072Z,9.88
2022-10-04T13:25:47.764Z,1.88
2022-10-04T13:28:21.696Z,11.07
2022-10-04T13:31:24.081Z,6.32
2022-10-04T13:34:09.595Z,7.20
2022-10-04T13:37:14.035Z,2.58
2022-10-04T13:40:02.124Z,2.45
2022-10-04T13:42:41.883Z,3.20
2022-10-04T13:48:21.866Z,7.50
2022-10-04T13:51:30.429Z,4.95
2022-10-04T13:54:29.838Z,5.68
2022-10-04T13:57:22.502Z,4.75
2022-10-04T14:00:15.098Z,4.95
2022-10-04T14:02:47.712Z,4.47
2022-10-04T14:05:27.177Z,2.85
2022-10-04T14:08:28.147Z,1.85
2022-10-04T14:11:13.690Z,2.47
2022-10-04T14:14:08.582Z,5.68
2022-10-04T14:17:06.083Z,2.17
2022-10-04T14:19:41.878Z,3.90
2022-10-04T14:22:44.732Z,4.05
2022-10-04T14:25:23.626Z,3.65
2022-10-04T14:27:53.717Z,2.58
2022-10-04T14:30:26.177Z,2.55
2022-10-04T14:33:30.143Z,3.05
2022-10-04T14:36:22.901Z,3.88
2022-10-04T14:39:34.793Z,2.95
2022-10-04T14:42:19.854Z,2.22
2022-10-04T14:45:05.539Z,1.02
2022-10-04T14:48:09.448Z,4.50
2022-10-04T14:50:36.293Z,1.38
2022-10-04T14:53:22.462Z,3.20
2022-10-04T14:56:06.503Z,7.75
2022-10-04T14:59:10.288Z,2.50
2022-10-04T15:01:44.068Z,3.80
2022-10-04T15:04:29.421Z,1.55
2022-10-04T15:06:57.744Z,3.97
2022-10-04T15:09:44.215Z,4.03
2022-10-04T15:12:51.964Z,5.40
2022-10-04T15:15:14.549Z,1.55
2022-10-04T15:17:57.002Z,12.90
2022-10-04T15:20:47.566Z,6.60
2022-10-04T15:23:40.638Z,8.13
2022-10-04T15:26:19.524Z,8.18
2022-10-04T15:28:54.912Z,6.95
2022-10-04T15:31:47.310Z,8.48
2022-10-04T15:34:25.672Z,12.25
2022-10-04T15:37:17.217Z,5.20
2022-10-04T15:40:08.364Z,2.65
2022-10-04T15:42:39.851Z,2.05
2022-10-04T15:45:18.560Z,5.78
2022-10-04T15:48:10.672Z,1.85
2022-10-04T15:50:56.193Z,7.32
2022-10-04T15:53:23.582Z,2.08
2022-10-04T15:56:08.574Z,3.72
2022-10-04T15:58:39.921Z,3.97
2022-10-04T16:01:21.992Z,5.90
2022-10-04T16:04:27.148Z,4.03
2022-10-04T16:07:00.955Z,2.05
2022-10-04T16:09:47.092Z,2.28
2022-10-04T16:12:33.248Z,1.05
2022-10-04T16:15:02.865Z,2.50
2022-10-04T16:18:05.318Z,1.52
2022-10-04T16:20:51.015Z,3.45
2022-10-04T16:23:26.637Z,2.22
2022-10-04T16:26:02.292Z,4.35
2022-10-04T16:29:08.443Z,1.98
2022-10-04T16:32:05.185Z,5.35
2022-10-04T16:34:45.585Z,2.50
2022-10-04T16:37:24.352Z,1.55
2022-10-04T16:40:02.283Z,2.75
2022-10-04T16:42:50.214Z,2.60
2022-10-04T16:45:29.591Z,4.78
2022-10-04T16:48:33.782Z,3.53
2022-10-04T16:51:18.812Z,2.08
2022-10-04T16:53:53.635Z,5.55
2022-10-04T16:56:25.842Z,6.65
2022-10-04T16:59:12.236Z,2.03
2022-10-04T17:02:06.910Z,3.90
2022-10-04T17:04:36.414Z,4.25
2022-10-04T17:07:24.686Z,2.70
2022-10-04T17:10:06.692Z,3.47
2022-10-04T17:12:45.704Z,6.15
2022-10-04T17:15:14.987Z,6.37
2022-10-04T17:18:00.625Z,3.33
2022-10-04T17:20:50.008Z,5.35
2022-10-04T17:23:42.053Z,4.05
2022-10-04T17:26:26.989Z,4.97
2022-10-04T17:29:24.410Z,3.25
2022-10-04T17:32:04.592Z,3.65
2022-10-04T17:34:53.102Z,3.58
2022-10-04T17:37:47.556Z,3.92
2022-10-04T17:40:27.675Z,5.97
2022-10-04T17:43:05.359Z,6.93
2022-10-04T17:45:55.901Z,7.45
2022-10-04T17:48:50.876Z,4.78
2022-10-04T17:51:39.730Z,2.80
2022-10-04T17:54:52.145Z,4.07
2022-10-04T17:57:25.962Z,4.35
2022-10-04T18:00:10.375Z,5.93
2022-10-04T18:03:00.737Z,3.47
2022-10-04T18:05:43.078Z,2.92
2022-10-04T18:08:37.748Z,5.75
2022-10-04T18:11:33.098Z,6.85
2022-10-04T18:14:05.950Z,2.92
2022-10-04T18:16:48.135Z,3.90
2022-10-04T18:19:40.272Z,3.58
2022-10-04T18:22:16.827Z,3.10
2022-10-04T18:25:13.286Z,2.00
2022-10-04T18:28:06.834Z,3.40
2022-10-04T18:30:49.218Z,2.25
2022-10-04T18:33:25.131Z,2.22
2022-10-04T18:36:25.178Z,3.63
2022-10-04T18:39:19.753Z,5.03
2022-10-04T18:42:23.715Z,3.03
2022-10-04T18:45:02.679Z,3.15
2022-10-04T18:47:43.862Z,2.40
2022-10-04T18:50:25.194Z,1.40
2022-10-04T18:53:31.587Z,2.75
2022-10-04T18:56:13.831Z,3.05
2022-10-04T18:59:44.208Z,1.58
2022-10-04T19:03:16.675Z,2.47
2022-10-04T19:05:54.005Z,2.63
2022-10-04T19:08:40.204Z,4.00
2022-10-04T19:11:17.082Z,3.47
2022-10-04T19:14:21.872Z,5.80
2022-10-04T19:17:15.291Z,6.03
2022-10-04T19:19:51.808Z,4.45
2022-10-04T19:22:38.477Z,6.55
2022-10-04T19:25:26.989Z,8.93
2022-10-04T19:28:17.217Z,7.68
2022-10-04T19:31:08.402Z,7.00
2022-10-04T19:34:07.863Z,5.20
2022-10-04T19:36:59.155Z,6.35
2022-10-04T19:39:50.062Z,7.13
2022-10-04T19:45:26.555Z,7.90
2022-10-04T19:48:01.888Z,4.80
2022-10-04T19:50:48.628Z,4.68
2022-10-04T19:53:20.482Z,10.43
2022-10-04T19:55:58.606Z,92.35
2022-10-04T19:58:45.453Z,95.85
2022-10-04T20:01:25.164Z,38.45
2022-10-04T20:04:12.508Z,36.35
2022-10-04T20:06:51.379Z,32.55
2022-10-04T20:09:49.695Z,21.73
2022-10-04T20:12:33.210Z,20.15
2022-10-04T20:15:14.920Z,14.25
2022-10-04T20:17:47.638Z,21.13
2022-10-04T20:20:17.492Z,25.33
2022-10-04T20:22:50.427Z,44.53
2022-10-04T20:25:45.789Z,47.25
2022-10-04T20:28:28.316Z,50.03
2022-10-04T20:30:59.371Z,46.03
2022-10-04T20:33:36.931Z,38.10
2022-10-04T20:36:12.283Z,71.35
2022-10-04T20:38:50.476Z,55.53
2022-10-04T20:41:29.670Z,49.15
2022-10-04T20:44:04.588Z,43.83
2022-10-04T20:46:38.270Z,32.40
2022-10-04T20:49:14.678Z,28.13
2022-10-04T20:51:48.697Z,34.83
2022-10-04T20:54:20.244Z,29.52
2022-10-04T20:56:49.250Z,31.23
2022-10-04T20:59:18.179Z,51.75
2022-10-04T21:02:02.035Z,52.08
2022-10-04T21:04:32.483Z,35.45
2022-10-04T21:07:06.196Z,34.80
2022-10-04T21:09:34.834Z,17.95
2022-10-04T21:12:03.835Z,23.83
2022-10-04T21:14:39.666Z,30.88
2022-10-04T21:17:28.548Z,31.15
2022-10-04T21:19:55.979Z,25.00
2022-10-04T21:22:25.997Z,22.67
2022-10-04T21:27:37.703Z,25.02
2022-10-04T21:32:40.287Z,29.88
2022-10-04T21:35:08.530Z,26.42
2022-10-04T21:37:36.046Z,44.13
2022-10-04T21:40:03.822Z,18.95
2022-10-04T21:42:30.985Z,18.75
2022-10-04T21:44:58.020Z,46.20
2022-10-04T21:47:24.953Z,64.68
2022-10-04T21:49:52.623Z,47.55
2022-10-04T21:52:19.430Z,68.50
2022-10-04T21:54:46.231Z,70.28
2022-10-04T21:57:13.758Z,69.05
2022-10-04T21:59:40.604Z,62.83
2022-10-04T22:02:10.164Z,59.70
2022-10-04T22:04:38.441Z,64.18
2022-10-04T22:07:05.440Z,50.20
2022-10-04T22:09:33.353Z,48.00
2022-10-04T22:12:00.106Z,26.85
2022-10-04T22:14:27.034Z,21.92
2022-10-04T22:16:53.766Z,21.05
2022-10-04T22:19:20.652Z,36.47
2022-10-04T22:21:47.452Z,41.88
2022-10-04T22:24:19.421Z,39.42
2022-10-04T22:26:46.970Z,24.77
2022-10-04T22:29:16.377Z,15.80
2022-10-04T22:31:51.030Z,11.40
2022-10-04T22:34:21.010Z,6.63
2022-10-04T22:36:49.930Z,30.85
2022-10-04T22:39:21.052Z,53.30
2022-10-04T22:41:52.409Z,14.27
2022-10-04T22:44:20.671Z,7.65
2022-10-04T22:46:53.729Z,8.88
2022-10-04T22:49:23.934Z,6.50
2022-10-04T22:54:24.748Z,6.50
2022-10-04T22:56:52.407Z,6.38
2022-10-04T22:59:20.810Z,2.38
2022-10-04T23:03:35.685Z,3.92
2022-10-04T23:06:03.244Z,7.88
2022-10-04T23:08:30.857Z,6.80
2022-10-04T23:10:59.919Z,26.38
2022-10-04T23:13:27.697Z,48.60
2022-10-04T23:16:00.402Z,64.28
2022-10-04T23:18:28.639Z,66.38
2022-10-04T23:21:01.855Z,72.47
2022-10-04T23:23:30.625Z,56.88
2022-10-04T23:25:57.414Z,46.22
2022-10-04T23:28:24.721Z,54.78
2022-10-04T23:31:11.015Z,49.97
2022-10-04T23:33:37.743Z,37.78
2022-10-04T23:36:11.862Z,23.38
2022-10-04T23:38:38.755Z,27.20
2022-10-04T23:41:11.520Z,18.20
2022-10-04T23:43:38.700Z,18.83
2022-10-04T23:46:13.751Z,15.85
2022-10-04T23:48:41.324Z,15.35
2022-10-04T23:51:12.157Z,16.73
2022-10-04T23:53:40.262Z,12.52
2022-10-04T23:56:24.513Z,14.48
2022-10-04T23:58:55.156Z,24.23
